Time;durP1;ratioP1;P1;durP2;ratioP2;P2;SDS_P1;SDS_P2;PMS_P1;PMS_P2;Temp;Humidity;BMP_temperature;BMP_pressure;BME280_temperature;BME280_humidity;BME280_pressure;Samples;Min_cycle;Max_cycle;Signal;HPM_P1;HPM_P2
2022/03/17 00:00:01;;;;;;;;;;;11.20;99.90;;;;;;4991741;28;20175;-68
2022/03/17 00:02:27;;;;;;;;;;;11.20;99.90;;;;;;4992302;28;19913;-68
2022/03/17 00:04:52;;;;;;;;;;;11.10;99.90;;;;;;4992179;28;19916;-68
2022/03/17 00:07:18;;;;;;;;;;;11.20;99.90;;;;;;4991797;28;20339;-70
2022/03/17 00:09:44;;;;;;;;;;;11.20;99.90;;;;;;4993545;28;20367;-69
2022/03/17 00:12:09;;;;;;;;;;;11.10;99.90;;;;;;4991529;28;19964;-67
2022/03/17 00:14:35;;;;;;;;;;;11.00;99.90;;;;;;4992319;28;19910;-69
2022/03/17 00:17:01;;;;;;;;;;;11.00;99.90;;;;;;4991201;28;20104;-70
2022/03/17 00:19:27;;;;;;;;;;;10.90;99.90;;;;;;4992271;28;19914;-69
2022/03/17 00:21:52;;;;;;;;;;;11.00;99.90;;;;;;4992411;28;20349;-67
2022/03/17 00:24:18;;;;;;;;;;;11.00;99.90;;;;;;4991182;28;20002;-68
2022/03/17 00:26:43;;;;;;;;;;;11.00;99.90;;;;;;4993271;28;19914;-68
2022/03/17 00:29:09;;;;;;;;;;;10.90;99.90;;;;;;4991488;28;19909;-67
2022/03/17 00:31:37;;;;;;;;;;;11.00;99.90;;;;;;4993115;28;20339;-68
2022/03/17 00:34:05;;;;;;;;;;;11.00;99.90;;;;;;4990937;28;20004;-68
2022/03/17 00:36:33;;;;;;;;;;;10.90;99.90;;;;;;4993023;28;19920;-68
2022/03/17 00:38:58;;;;;;;;;;;10.90;99.90;;;;;;4991257;28;20386;-68
2022/03/17 00:41:24;;;;;;;;;;;10.90;99.90;;;;;;4990937;28;19946;-68
2022/03/17 00:43:49;;;;;;;;;;;10.90;99.90;;;;;;4991372;28;20298;-68
2022/03/17 00:46:15;;;;;;;;;;;10.90;99.90;;;;;;4992053;28;20279;-69
2022/03/17 00:48:40;;;;;;;;;;;10.90;99.90;;;;;;4992756;28;19918;-68
2022/03/17 00:51:06;;;;;;;;;;;10.90;99.90;;;;;;4990666;28;19909;-69
2022/03/17 00:53:31;;;;;;;;;;;10.90;99.90;;;;;;4992508;28;20001;-68
2022/03/17 00:55:57;;;;;;;;;;;10.90;99.90;;;;;;4991208;28;19918;-68
2022/03/17 00:58:22;;;;;;;;;;;10.90;99.90;;;;;;4990503;28;19918;-68
2022/03/17 01:00:48;;;;;;;;;;;10.90;99.90;;;;;;4990905;28;19914;-69
2022/03/17 01:03:14;;;;;;;;;;;10.90;99.90;;;;;;4990575;28;19914;-69
2022/03/17 01:05:41;;;;;;;;;;;10.80;99.90;;;;;;4991126;28;19910;-67
2022/03/17 01:08:07;;;;;;;;;;;10.80;99.90;;;;;;4990331;28;19917;-68
2022/03/17 01:10:33;;;;;;;;;;;10.80;99.90;;;;;;4991116;28;19910;-68
2022/03/17 01:12:58;;;;;;;;;;;10.80;99.90;;;;;;4992765;28;20267;-68
2022/03/17 01:15:24;;;;;;;;;;;10.80;99.90;;;;;;4990485;28;19914;-68
2022/03/17 01:17:49;;;;;;;;;;;10.80;99.90;;;;;;4991402;28;19960;-68
2022/03/17 01:20:15;;;;;;;;;;;10.70;99.90;;;;;;4990397;28;20027;-68
2022/03/17 01:22:40;;;;;;;;;;;10.70;99.90;;;;;;4990936;28;19961;-68
2022/03/17 01:25:06;;;;;;;;;;;10.90;99.90;;;;;;4991772;28;20001;-68
2022/03/17 01:27:34;;;;;;;;;;;10.80;99.90;;;;;;4990972;28;20316;-68
2022/03/17 01:29:59;;;;;;;;;;;10.80;99.90;;;;;;4990993;28;20283;-68
2022/03/17 01:32:25;;;;;;;;;;;10.80;99.90;;;;;;4990354;28;19910;-70
2022/03/17 01:34:51;;;;;;;;;;;10.80;99.90;;;;;;4994375;28;19914;-68
2022/03/17 01:37:17;;;;;;;;;;;10.80;99.90;;;;;;4995942;28;19910;-68
2022/03/17 01:39:42;;;;;;;;;;;10.70;99.90;;;;;;4996186;28;20013;-67
2022/03/17 01:42:09;;;;;;;;;;;10.70;99.90;;;;;;4994430;28;19964;-68
2022/03/17 01:44:35;;;;;;;;;;;10.70;99.90;;;;;;4994885;28;19945;-69
2022/03/17 01:49:45;;;;;;;;;;;10.70;99.90;;;;;;4996313;28;19933;-67
2022/03/17 01:52:10;;;;;;;;;;;10.70;99.90;;;;;;4995192;28;20355;-67
2022/03/17 01:54:36;;;;;;;;;;;10.70;99.90;;;;;;4994554;28;20298;-67
2022/03/17 01:57:03;;;;;;;;;;;10.60;99.90;;;;;;4994507;28;19963;-67
2022/03/17 01:59:28;;;;;;;;;;;10.60;99.90;;;;;;4993927;28;19914;-67
2022/03/17 02:01:54;;;;;;;;;;;10.60;99.90;;;;;;4994624;28;20283;-67
2022/03/17 02:04:20;;;;;;;;;;;10.60;99.90;;;;;;4993814;28;19917;-67
2022/03/17 02:06:46;;;;;;;;;;;10.60;99.90;;;;;;4995995;28;19910;-67
2022/03/17 02:09:12;;;;;;;;;;;10.70;99.90;;;;;;4993739;28;19920;-67
2022/03/17 02:14:23;;;;;;;;;;;10.70;99.90;;;;;;4994974;28;20051;-68
2022/03/17 02:16:51;;;;;;;;;;;10.70;99.90;;;;;;4995599;28;19910;-68
2022/03/17 02:19:17;;;;;;;;;;;10.60;99.90;;;;;;4994935;28;19930;-69
2022/03/17 02:21:44;;;;;;;;;;;10.60;99.90;;;;;;4995327;28;20070;-68
2022/03/17 02:26:55;;;;;;;;;;;10.50;99.90;;;;;;4995224;28;20295;-67
2022/03/17 02:29:20;;;;;;;;;;;10.50;99.90;;;;;;4994689;28;20020;-67
2022/03/17 02:31:46;;;;;;;;;;;10.50;99.90;;;;;;4995159;28;19910;-68
2022/03/17 02:34:11;;;;;;;;;;;10.50;99.90;;;;;;4993438;28;20443;-68
2022/03/17 02:36:45;;;;;;;;;;;10.60;99.90;;;;;;4977527;28;19909;-67
2022/03/17 02:39:11;;;;;;;;;;;10.60;99.90;;;;;;4994601;28;19921;-68
2022/03/17 02:41:36;;;;;;;;;;;10.50;99.90;;;;;;4994913;28;19914;-68
2022/03/17 02:44:04;;;;;;;;;;;10.50;99.90;;;;;;4993885;28;19978;-70
2022/03/17 02:46:30;;;;;;;;;;;10.40;99.90;;;;;;4991943;28;19956;-68
2022/03/17 02:48:55;;;;;;;;;;;10.50;99.90;;;;;;4994696;28;19956;-68
2022/03/17 02:51:21;;;;;;;;;;;10.50;99.90;;;;;;4994373;28;19918;-68
2022/03/17 02:53:46;;;;;;;;;;;10.40;99.90;;;;;;4993248;28;19917;-67
2022/03/17 02:56:12;;;;;;;;;;;10.40;99.90;;;;;;4994340;28;19917;-68
2022/03/17 02:58:37;;;;;;;;;;;10.40;99.90;;;;;;4993449;28;19921;-66
2022/03/17 03:01:03;;;;;;;;;;;10.40;99.90;;;;;;4994770;28;19968;-67
2022/03/17 03:03:28;;;;;;;;;;;10.50;99.90;;;;;;4994403;28;20557;-67
2022/03/17 03:05:54;;;;;;;;;;;10.50;99.90;;;;;;4993420;28;19976;-67
2022/03/17 03:08:19;;;;;;;;;;;10.40;99.90;;;;;;4994077;28;20320;-68
2022/03/17 03:10:45;;;;;;;;;;;10.40;99.90;;;;;;4994692;28;20303;-67
2022/03/17 03:13:10;;;;;;;;;;;10.40;99.90;;;;;;4994102;28;19922;-73
2022/03/17 03:15:36;;;;;;;;;;;10.30;99.90;;;;;;4994343;28;19910;-67
2022/03/17 03:18:01;;;;;;;;;;;10.40;99.90;;;;;;5009054;28;20366;-67
2022/03/17 03:20:27;;;;;;;;;;;10.30;99.90;;;;;;5028147;28;19922;-68
2022/03/17 03:22:52;;;;;;;;;;;10.30;99.90;;;;;;5029066;28;19921;-68
2022/03/17 03:25:18;;;;;;;;;;;10.30;99.90;;;;;;4995109;28;19930;-67
2022/03/17 03:27:44;;;;;;;;;;;10.20;99.90;;;;;;5028977;28;19913;-67
2022/03/17 03:30:11;;;;;;;;;;;10.20;99.90;;;;;;5028923;28;20244;-67
2022/03/17 03:32:37;;;;;;;;;;;10.20;99.90;;;;;;4996133;28;20311;-68
2022/03/17 03:37:22;;;;;;;;;;;10.20;99.90;;;;;;5013850;28;19909;-67
2022/03/17 03:37:49;;;;;;;;;;;10.20;99.90;;;;;;5013744;28;20373;-68
2022/03/17 03:40:15;;;;;;;;;;;10.20;99.90;;;;;;5012595;28;20017;-68
2022/03/17 03:42:41;;;;;;;;;;;10.20;99.90;;;;;;5013263;28;20343;-68
2022/03/17 03:45:06;;;;;;;;;;;10.30;99.90;;;;;;5013619;28;19961;-68
2022/03/17 03:47:32;;;;;;;;;;;10.20;99.90;;;;;;5012847;28;20270;-67
2022/03/17 03:49:57;;;;;;;;;;;10.20;99.90;;;;;;5013265;28;20278;-66
2022/03/17 03:52:23;;;;;;;;;;;10.20;99.90;;;;;;5012725;28;19910;-68
2022/03/17 03:54:48;;;;;;;;;;;10.10;99.90;;;;;;5013488;28;19910;-68
2022/03/17 03:57:14;;;;;;;;;;;10.20;99.90;;;;;;5027710;28;19921;-69
2022/03/17 03:59:39;;;;;;;;;;;10.20;99.90;;;;;;5028367;28;19917;-68
2022/03/17 04:02:06;;;;;;;;;;;10.30;99.90;;;;;;5028177;28;19980;-68
2022/03/17 04:04:31;;;;;;;;;;;10.20;99.90;;;;;;4994852;28;20351;-67
2022/03/17 04:06:59;;;;;;;;;;;10.10;99.90;;;;;;5013106;28;19975;-67
2022/03/17 04:09:26;;;;;;;;;;;10.10;99.90;;;;;;5012570;28;19979;-67
2022/03/17 04:11:51;;;;;;;;;;;10.10;99.90;;;;;;5013103;28;19913;-68
2022/03/17 04:14:17;;;;;;;;;;;10.10;99.90;;;;;;4994762;28;19916;-68
2022/03/17 04:16:43;;;;;;;;;;;10.10;99.90;;;;;;4995275;28;19910;-67
2022/03/17 04:19:09;;;;;;;;;;;10.20;99.90;;;;;;4995005;28;19964;-67
2022/03/17 04:21:35;;;;;;;;;;;10.20;99.90;;;;;;4994490;28;19917;-68
2022/03/17 04:24:00;;;;;;;;;;;10.20;99.90;;;;;;4995048;28;19971;-68
2022/03/17 04:26:26;;;;;;;;;;;10.20;99.90;;;;;;4994187;28;20016;-68
2022/03/17 04:28:52;;;;;;;;;;;10.10;99.90;;;;;;5012769;28;19913;-67
2022/03/17 04:31:18;;;;;;;;;;;10.10;99.90;;;;;;5027201;28;20362;-69
2022/03/17 04:33:44;;;;;;;;;;;10.00;99.90;;;;;;5012882;28;19963;-67
2022/03/17 04:36:10;;;;;;;;;;;10.10;99.90;;;;;;5012663;28;19909;-67
2022/03/17 04:38:35;;;;;;;;;;;10.10;99.90;;;;;;4994245;28;19917;-68
2022/03/17 04:41:01;;;;;;;;;;;10.00;99.90;;;;;;5012681;28;19917;-68
2022/03/17 04:43:26;;;;;;;;;;;10.10;99.90;;;;;;5011630;28;20279;-67
2022/03/17 04:45:52;;;;;;;;;;;10.00;99.90;;;;;;5012829;28;19909;-67
2022/03/17 04:48:17;;;;;;;;;;;10.00;99.90;;;;;;4994307;28;20316;-68
2022/03/17 04:50:43;;;;;;;;;;;10.00;99.90;;;;;;5012667;28;20418;-68
2022/03/17 04:53:27;;;;;;;;;;;10.10;99.90;;;;;;4994832;28;19910;-67
2022/03/17 04:55:53;;;;;;;;;;;10.00;99.90;;;;;;5012393;28;19913;-67
2022/03/17 04:58:18;;;;;;;;;;;10.00;99.90;;;;;;4993973;28;19916;-67
2022/03/17 05:00:44;;;;;;;;;;;10.00;99.90;;;;;;5012331;28;19914;-68
2022/03/17 05:03:10;;;;;;;;;;;9.90;99.90;;;;;;4994503;28;19916;-68
2022/03/17 05:05:36;;;;;;;;;;;10.00;99.90;;;;;;5011510;28;19909;-68
2022/03/17 05:08:01;;;;;;;;;;;10.00;99.90;;;;;;5011749;28;19913;-68
2022/03/17 05:10:30;;;;;;;;;;;9.90;99.90;;;;;;5026532;28;19914;-68
2022/03/17 05:12:56;;;;;;;;;;;10.00;99.90;;;;;;5027027;28;19909;-67
2022/03/17 05:15:22;;;;;;;;;;;9.90;99.90;;;;;;4993561;28;19909;-68
2022/03/17 05:17:48;;;;;;;;;;;9.90;99.90;;;;;;4994371;28;19910;-67
2022/03/17 05:20:14;;;;;;;;;;;9.90;99.90;;;;;;5027213;28;19917;-67
2022/03/17 05:22:41;;;;;;;;;;;9.90;99.90;;;;;;5026519;28;19917;-67
2022/03/17 05:25:08;;;;;;;;;;;9.90;99.90;;;;;;4990673;28;19993;-68
2022/03/17 05:27:37;;;;;;;;;;;9.90;99.90;;;;;;4990284;28;19918;-68
2022/03/17 05:30:03;;;;;;;;;;;9.90;99.90;;;;;;4992173;28;20377;-68
2022/03/17 05:32:29;;;;;;;;;;;9.90;99.90;;;;;;4990123;28;20000;-68
2022/03/17 05:34:54;;;;;;;;;;;9.90;99.90;;;;;;4991886;28;19964;-68
2022/03/17 05:37:20;;;;;;;;;;;9.90;99.90;;;;;;4989960;28;19961;-69
2022/03/17 05:39:45;;;;;;;;;;;9.90;99.90;;;;;;4990389;28;20016;-67
2022/03/17 05:42:11;;;;;;;;;;;9.90;99.90;;;;;;4990564;28;20329;-66
2022/03/17 05:44:36;;;;;;;;;;;9.90;99.90;;;;;;4991638;28;19910;-67
2022/03/17 05:47:02;;;;;;;;;;;9.80;99.90;;;;;;4991925;28;19910;-67
2022/03/17 05:49:28;;;;;;;;;;;9.90;99.90;;;;;;4989792;28;19997;-67
2022/03/17 05:51:53;;;;;;;;;;;9.90;99.90;;;;;;4990519;28;19910;-68
2022/03/17 05:54:19;;;;;;;;;;;9.90;99.90;;;;;;4991970;28;19910;-67
2022/03/17 05:56:45;;;;;;;;;;;9.90;99.90;;;;;;4991455;28;19925;-67
2022/03/17 05:59:10;;;;;;;;;;;9.90;99.90;;;;;;4990429;28;19918;-67
2022/03/17 06:01:36;;;;;;;;;;;9.90;99.90;;;;;;4990723;28;19941;-68
2022/03/17 06:04:02;;;;;;;;;;;9.90;99.90;;;;;;4990186;28;19932;-67
2022/03/17 06:06:27;;;;;;;;;;;9.80;99.90;;;;;;4990909;28;20001;-68
2022/03/17 06:08:52;;;;;;;;;;;9.90;99.90;;;;;;4991558;28;19960;-67
2022/03/17 06:11:18;;;;;;;;;;;9.80;99.90;;;;;;4991621;28;20389;-71
2022/03/17 06:13:43;;;;;;;;;;;9.80;99.90;;;;;;4991000;28;19913;-67
2022/03/17 06:16:09;;;;;;;;;;;9.80;99.90;;;;;;4990285;28;19910;-67
2022/03/17 06:18:34;;;;;;;;;;;9.90;99.90;;;;;;4991320;28;20205;-68
2022/03/17 06:21:00;;;;;;;;;;;9.90;99.90;;;;;;4993149;28;19921;-66
2022/03/17 06:23:26;;;;;;;;;;;9.80;99.90;;;;;;4993205;28;20087;-68
2022/03/17 06:25:51;;;;;;;;;;;9.90;99.90;;;;;;5008010;28;20020;-68
2022/03/17 06:28:18;;;;;;;;;;;9.90;99.90;;;;;;5014549;28;19909;-68
2022/03/17 06:30:44;;;;;;;;;;;10.00;99.90;;;;;;5014031;28;19916;-68
2022/03/17 06:33:09;;;;;;;;;;;10.00;99.90;;;;;;4997137;28;19909;-68
2022/03/17 06:35:35;;;;;;;;;;;9.90;99.90;;;;;;5013720;28;20351;-68
2022/03/17 06:38:01;;;;;;;;;;;10.00;99.90;;;;;;5014075;28;19992;-68
2022/03/17 06:40:28;;;;;;;;;;;9.90;99.90;;;;;;5013227;28;20320;-69
2022/03/17 06:42:54;;;;;;;;;;;9.90;99.90;;;;;;4996078;28;19939;-68
2022/03/17 06:45:19;;;;;;;;;;;10.00;99.90;;;;;;4996215;28;19909;-68
2022/03/17 06:47:45;;;;;;;;;;;10.00;99.90;;;;;;5013333;28;19920;-72
2022/03/17 06:50:11;;;;;;;;;;;10.10;99.90;;;;;;5028969;28;20374;-72
2022/03/17 06:52:37;;;;;;;;;;;10.10;99.90;;;;;;4995613;28;20274;-71
2022/03/17 06:55:02;;;;;;;;;;;10.30;99.90;;;;;;4995714;28;19933;-71
2022/03/17 06:57:28;;;;;;;;;;;10.20;99.90;;;;;;4995526;28;20013;-71
2022/03/17 06:59:54;;;;;;;;;;;10.10;99.90;;;;;;5012283;28;19959;-71
2022/03/17 07:02:19;;;;;;;;;;;10.30;99.90;;;;;;4993724;28;20013;-71
2022/03/17 07:04:45;;;;;;;;;;;10.30;99.90;;;;;;4991957;28;19920;-71
2022/03/17 07:07:10;;;;;;;;;;;10.20;99.90;;;;;;4990376;28;20224;-70
2022/03/17 07:09:36;;;;;;;;;;;10.20;99.90;;;;;;4991711;28;20256;-73
2022/03/17 07:12:02;;;;;;;;;;;10.20;99.90;;;;;;5006122;28;20346;-71
2022/03/17 07:14:28;;;;;;;;;;;10.20;99.90;;;;;;4993708;28;19928;-71
2022/03/17 07:16:53;;;;;;;;;;;10.20;99.90;;;;;;5010885;28;19948;-71
2022/03/17 07:19:19;;;;;;;;;;;10.40;99.90;;;;;;4994753;28;19921;-70
2022/03/17 07:21:44;;;;;;;;;;;10.50;99.90;;;;;;5007754;28;20200;-70
2022/03/17 07:24:10;;;;;;;;;;;10.50;99.90;;;;;;4995007;28;19917;-70
2022/03/17 07:26:36;;;;;;;;;;;10.40;99.90;;;;;;4993846;28;19960;-70
2022/03/17 07:29:02;;;;;;;;;;;10.40;99.90;;;;;;4987929;28;19917;-72
2022/03/17 07:31:28;;;;;;;;;;;10.30;99.90;;;;;;4991940;28;20254;-71
2022/03/17 07:33:54;;;;;;;;;;;10.30;99.90;;;;;;5011124;28;19978;-68
2022/03/17 07:36:20;;;;;;;;;;;10.20;99.90;;;;;;4993043;28;19910;-69
2022/03/17 07:38:45;;;;;;;;;;;10.30;99.90;;;;;;4991179;28;20366;-70
2022/03/17 07:41:11;;;;;;;;;;;10.30;99.90;;;;;;4993980;28;20394;-68
2022/03/17 07:43:37;;;;;;;;;;;10.40;99.90;;;;;;5006662;28;20082;-69
2022/03/17 07:46:02;;;;;;;;;;;10.40;99.90;;;;;;4994305;28;19909;-69
2022/03/17 07:48:28;;;;;;;;;;;10.30;99.90;;;;;;5011870;28;20331;-69
2022/03/17 07:50:53;;;;;;;;;;;10.30;99.90;;;;;;5012401;28;20040;-72
2022/03/17 07:53:19;;;;;;;;;;;10.20;99.90;;;;;;5008194;28;20304;-67
2022/03/17 07:55:45;;;;;;;;;;;11.00;99.90;;;;;;5010257;28;19917;-67
2022/03/17 07:58:11;;;;;;;;;;;10.50;99.90;;;;;;5012458;28;19909;-68
2022/03/17 08:00:37;;;;;;;;;;;10.40;99.90;;;;;;5011852;28;19923;-69
2022/03/17 08:03:06;;;;;;;;;;;10.30;99.90;;;;;;5006888;28;19971;-68
2022/03/17 08:05:31;;;;;;;;;;;10.30;99.90;;;;;;5003387;28;19941;-68
2022/03/17 08:07:59;;;;;;;;;;;10.30;99.90;;;;;;4981113;28;19920;-69
2022/03/17 08:10:25;;;;;;;;;;;10.30;99.90;;;;;;4970484;28;19914;-70
2022/03/17 08:12:50;;;;;;;;;;;10.30;99.90;;;;;;4980349;28;20457;-70
2022/03/17 08:15:16;;;;;;;;;;;10.40;99.90;;;;;;5006958;28;20047;-68
2022/03/17 08:17:42;;;;;;;;;;;10.40;99.90;;;;;;4984771;28;19958;-68
2022/03/17 08:20:08;;;;;;;;;;;10.50;99.90;;;;;;4989623;28;19917;-66
2022/03/17 08:22:34;;;;;;;;;;;11.30;99.90;;;;;;4993511;28;19976;-71
2022/03/17 08:24:59;;;;;;;;;;;11.00;99.90;;;;;;4991223;28;19930;-72
2022/03/17 08:27:25;;;;;;;;;;;10.70;99.90;;;;;;4986299;28;19913;-71
2022/03/17 08:29:51;;;;;;;;;;;10.60;99.90;;;;;;4985137;28;20115;-72
2022/03/17 08:32:16;;;;;;;;;;;10.50;99.90;;;;;;4985990;28;20212;-69
2022/03/17 08:34:42;;;;;;;;;;;10.50;99.90;;;;;;4978479;28;19965;-71
2022/03/17 08:37:09;;;;;;;;;;;10.50;99.90;;;;;;4968320;28;19937;-73
2022/03/17 08:39:35;;;;;;;;;;;10.50;99.90;;;;;;4967688;28;19940;-69
2022/03/17 08:42:00;;;;;;;;;;;10.40;99.90;;;;;;4967853;28;20341;-70
2022/03/17 08:44:26;;;;;;;;;;;10.60;99.90;;;;;;4965862;28;19920;-71
2022/03/17 08:49:36;;;;;;;;;;;10.80;99.90;;;;;;4986149;28;20154;-71
2022/03/17 08:52:02;;;;;;;;;;;10.80;99.90;;;;;;4987764;28;19918;-71
2022/03/17 08:54:29;;;;;;;;;;;10.90;99.90;;;;;;4985136;28;19922;-70
2022/03/17 08:57:01;;;;;;;;;;;11.00;99.90;;;;;;4987148;28;19920;-70
2022/03/17 08:59:30;;;;;;;;;;;10.90;99.90;;;;;;4985284;28;19921;-70
2022/03/17 09:01:59;;;;;;;;;;;10.90;99.90;;;;;;4981037;28;19922;-71
2022/03/17 09:04:24;;;;;;;;;;;10.90;99.90;;;;;;4976930;28;19941;-70
2022/03/17 09:06:50;;;;;;;;;;;10.90;99.90;;;;;;4985070;28;19917;-71
2022/03/17 09:09:16;;;;;;;;;;;10.90;99.90;;;;;;4963155;28;19918;-70
2022/03/17 09:11:41;;;;;;;;;;;10.80;99.90;;;;;;4985068;28;19922;-71
2022/03/17 09:14:07;;;;;;;;;;;10.90;99.90;;;;;;4985302;28;20514;-71
2022/03/17 09:16:34;;;;;;;;;;;11.10;99.90;;;;;;4978640;28;20407;-72
2022/03/17 09:18:59;;;;;;;;;;;11.00;99.90;;;;;;4984268;28;19926;-71
2022/03/17 09:21:27;;;;;;;;;;;11.00;99.90;;;;;;4978336;28;19922;-71
2022/03/17 09:23:53;;;;;;;;;;;11.00;99.90;;;;;;4984073;28;19922;-70
2022/03/17 09:26:19;;;;;;;;;;;11.20;99.90;;;;;;4979130;28;20343;-70
2022/03/17 09:28:44;;;;;;;;;;;11.10;99.90;;;;;;4969835;28;19945;-70
2022/03/17 09:31:10;;;;;;;;;;;11.30;99.90;;;;;;4976598;28;19967;-70
2022/03/17 09:33:35;;;;;;;;;;;11.40;99.90;;;;;;4974572;28;19918;-70
2022/03/17 09:36:01;;;;;;;;;;;11.30;99.90;;;;;;4969650;28;19966;-67
2022/03/17 09:38:26;;;;;;;;;;;11.60;99.90;;;;;;4978507;28;19914;-69
2022/03/17 09:40:52;;;;;;;;;;;11.60;99.90;;;;;;4982070;28;19925;-71
2022/03/17 09:43:28;;;;;;;;;;;11.40;99.90;;;;;;4985374;28;20003;-68
2022/03/17 09:45:54;;;;;;;;;;;11.40;99.90;;;;;;4986298;28;19952;-70
2022/03/17 09:48:21;;;;;;;;;;;11.40;99.90;;;;;;4980824;28;20001;-70
2022/03/17 09:50:47;;;;;;;;;;;11.50;99.90;;;;;;4968362;28;19918;-68
2022/03/17 09:53:13;;;;;;;;;;;11.70;99.90;;;;;;4968900;28;19925;-67
2022/03/17 09:55:43;;;;;;;;;;;11.60;99.90;;;;;;4983020;28;19918;-69
2022/03/17 09:58:09;;;;;;;;;;;11.60;99.90;;;;;;4987247;28;20568;-68
2022/03/17 10:00:47;;;;;;;;;;;11.60;99.90;;;;;;4974613;28;20013;-67
2022/03/17 10:03:17;;;;;;;;;;;11.60;99.90;;;;;;4986461;28;20239;-68
2022/03/17 10:05:46;;;;;;;;;;;11.70;99.90;;;;;;4977443;28;20549;-67
2022/03/17 10:08:15;;;;;;;;;;;11.90;99.90;;;;;;4978287;28;19950;-70
2022/03/17 10:10:42;;;;;;;;;;;12.00;99.90;;;;;;4975631;28;20327;-69
2022/03/17 10:13:11;;;;;;;;;;;11.90;99.90;;;;;;4984024;28;19966;-70
2022/03/17 10:15:37;;;;;;;;;;;12.00;99.90;;;;;;4975079;28;19918;-71
2022/03/17 10:18:38;;;;;;;;;;;12.10;99.90;;;;;;4971020;28;19925;-71
2022/03/17 10:21:04;;;;;;;;;;;12.10;99.90;;;;;;4948608;28;19968;-67
2022/03/17 10:23:30;;;;;;;;;;;12.00;99.90;;;;;;4988748;28;19968;-67
2022/03/17 10:25:56;;;;;;;;;;;12.00;99.90;;;;;;4971641;28;20315;-69
2022/03/17 10:28:26;;;;;;;;;;;12.00;99.90;;;;;;4979570;28;19930;-71
2022/03/17 10:31:05;;;;;;;;;;;12.00;99.90;;;;;;4979121;28;19918;-71
2022/03/17 10:33:32;;;;;;;;;;;12.10;99.90;;;;;;4988018;28;21354;-73
2022/03/17 10:36:14;;;;;;;;;;;12.00;99.90;;;;;;4989172;28;19914;-72
2022/03/17 10:38:42;;;;;;;;;;;12.00;99.90;;;;;;4986792;28;19922;-70
2022/03/17 10:41:11;;;;;;;;;;;12.10;99.90;;;;;;4986927;28;20021;-70
2022/03/17 10:43:38;;;;;;;;;;;12.10;99.90;;;;;;4988532;28;20615;-71
2022/03/17 10:46:05;;;;;;;;;;;12.10;99.90;;;;;;4988633;28;20300;-71
2022/03/17 10:48:30;;;;;;;;;;;12.10;99.90;;;;;;4989113;28;19913;-70
2022/03/17 10:50:56;;;;;;;;;;;12.00;99.90;;;;;;4985663;28;20013;-71
2022/03/17 10:53:29;;;;;;;;;;;12.10;99.90;;;;;;4981910;28;19917;-71
2022/03/17 10:56:08;;;;;;;;;;;12.10;99.90;;;;;;4988015;28;19993;-71
2022/03/17 10:58:40;;;;;;;;;;;12.10;99.90;;;;;;4988398;28;19913;-73
2022/03/17 11:01:06;;;;;;;;;;;12.10;99.90;;;;;;4988564;28;20282;-70
2022/03/17 11:03:31;;;;;;;;;;;12.10;99.90;;;;;;4977047;28;20345;-70
2022/03/17 11:05:57;;;;;;;;;;;12.10;99.90;;;;;;4977742;28;20005;-70
2022/03/17 11:08:23;;;;;;;;;;;12.20;99.90;;;;;;4988071;28;20001;-72
2022/03/17 11:10:52;;;;;;;;;;;12.10;99.90;;;;;;4987455;28;19962;-72
2022/03/17 11:13:18;;;;;;;;;;;12.10;99.90;;;;;;4987889;28;19914;-71
2022/03/17 11:15:45;;;;;;;;;;;12.10;99.90;;;;;;4987248;28;19944;-71
2022/03/17 11:18:18;;;;;;;;;;;12.10;99.90;;;;;;4986578;28;19917;-71
2022/03/17 11:20:44;;;;;;;;;;;12.20;99.90;;;;;;4993259;28;19917;-70
2022/03/17 11:23:15;;;;;;;;;;;12.30;99.90;;;;;;4995208;28;19921;-70
2022/03/17 11:25:54;;;;;;;;;;;12.30;99.90;;;;;;5005109;28;19933;-72
2022/03/17 11:28:30;;;;;;;;;;;12.30;99.90;;;;;;4995696;28;19953;-71
2022/03/17 11:30:59;;;;;;;;;;;12.40;99.90;;;;;;5013060;28;20300;-70
2022/03/17 11:33:29;;;;;;;;;;;12.30;99.90;;;;;;4979392;28;19913;-69
2022/03/17 11:36:01;;;;;;;;;;;12.30;99.90;;;;;;4993611;28;20013;-71
2022/03/17 11:38:29;;;;;;;;;;;12.20;99.90;;;;;;4996151;28;20294;-72
2022/03/17 11:41:14;;;;;;;;;;;12.30;99.90;;;;;;5012846;28;20009;-68
2022/03/17 11:43:39;;;;;;;;;;;12.30;99.90;;;;;;4995879;28;19909;-69
2022/03/17 11:46:17;;;;;;;;;;;12.30;99.90;;;;;;5013672;28;19941;-74
2022/03/17 11:48:43;;;;;;;;;;;12.20;99.90;;;;;;4991129;28;19964;-70
2022/03/17 11:51:10;;;;;;;;;;;12.20;99.90;;;;;;4994868;28;20004;-70
2022/03/17 11:53:43;;;;;;;;;;;12.30;99.90;;;;;;4992671;28;19924;-69
2022/03/17 11:56:09;;;;;;;;;;;12.20;99.90;;;;;;5013659;28;19910;-69
2022/03/17 11:58:46;;;;;;;;;;;12.20;99.90;;;;;;4995666;28;20000;-70
2022/03/17 12:01:25;;;;;;;;;;;12.00;99.90;;;;;;4995339;28;19925;-69
2022/03/17 12:03:53;;;;;;;;;;;12.00;99.90;;;;;;4994827;28;19909;-68
2022/03/17 12:06:20;;;;;;;;;;;12.00;99.90;;;;;;4995556;28;19909;-69
2022/03/17 12:08:49;;;;;;;;;;;11.90;99.90;;;;;;4995383;28;20259;-69
2022/03/17 12:11:15;;;;;;;;;;;12.00;99.90;;;;;;4995237;28;19909;-68
2022/03/17 12:13:41;;;;;;;;;;;11.90;99.90;;;;;;5012920;28;19956;-70
2022/03/17 12:16:08;;;;;;;;;;;11.90;99.90;;;;;;4995769;28;20355;-69
2022/03/17 12:18:52;;;;;;;;;;;12.00;99.90;;;;;;4994010;28;19913;-69
2022/03/17 12:21:18;;;;;;;;;;;12.00;99.90;;;;;;4995069;28;19920;-70
2022/03/17 12:23:47;;;;;;;;;;;11.90;99.90;;;;;;5011602;28;19917;-69
2022/03/17 12:26:12;;;;;;;;;;;11.60;99.90;;;;;;5009181;28;19922;-69
2022/03/17 12:28:42;;;;;;;;;;;11.60;99.90;;;;;;4994576;28;20425;-69
2022/03/17 12:31:08;;;;;;;;;;;11.30;99.90;;;;;;4994050;28;19910;-71
2022/03/17 12:33:33;;;;;;;;;;;11.40;99.90;;;;;;5012290;28;20001;-70
2022/03/17 12:36:03;;;;;;;;;;;11.40;99.90;;;;;;5011385;28;20395;-71
2022/03/17 12:38:29;;;;;;;;;;;11.30;99.90;;;;;;5011472;28;19910;-70
2022/03/17 12:40:56;;;;;;;;;;;11.40;99.90;;;;;;4992631;28;19921;-68
2022/03/17 12:43:22;;;;;;;;;;;11.40;99.90;;;;;;4993146;28;19952;-69
2022/03/17 12:45:50;;;;;;;;;;;11.30;99.90;;;;;;4991850;28;19913;-70
2022/03/17 12:48:16;;;;;;;;;;;11.30;99.90;;;;;;4993603;28;19953;-70
2022/03/17 12:50:42;;;;;;;;;;;11.20;99.90;;;;;;5011174;28;19917;-71
2022/03/17 12:53:09;;;;;;;;;;;11.20;99.90;;;;;;5011629;28;19910;-70
2022/03/17 12:55:35;;;;;;;;;;;11.20;99.90;;;;;;4989574;28;20016;-71
2022/03/17 12:58:02;;;;;;;;;;;11.20;99.90;;;;;;4983828;28;20237;-71
2022/03/17 13:00:28;;;;;;;;;;;11.20;99.90;;;;;;5012028;28;20232;-71
2022/03/17 13:02:57;;;;;;;;;;;11.20;99.90;;;;;;4993405;28;19920;-71
2022/03/17 13:08:08;;;;;;;;;;;11.20;99.90;;;;;;5000617;28;19964;-71
2022/03/17 13:16:04;;;;;;;;;;;11.20;99.90;;;;;;4990856;28;19964;-72
2022/03/17 13:18:47;;;;;;;;;;;11.10;99.90;;;;;;4973663;28;19910;-71
2022/03/17 13:21:21;;;;;;;;;;;11.00;99.90;;;;;;4974980;28;19968;-71
2022/03/17 13:23:47;;;;;;;;;;;11.00;99.90;;;;;;4977394;28;19918;-70
2022/03/17 13:26:19;;;;;;;;;;;10.90;99.90;;;;;;4993618;28;19929;-70
2022/03/17 13:28:45;;;;;;;;;;;10.80;99.90;;;;;;4992845;28;19917;-74
2022/03/17 13:31:16;;;;;;;;;;;10.80;99.90;;;;;;5011501;28;19956;-72
2022/03/17 13:33:51;;;;;;;;;;;10.80;99.90;;;;;;5011335;28;19913;-73
2022/03/17 13:36:17;;;;;;;;;;;10.90;99.90;;;;;;5003351;28;19914;-71
2022/03/17 13:38:43;;;;;;;;;;;10.80;99.90;;;;;;4984091;28;19913;-72
2022/03/17 13:41:18;;;;;;;;;;;10.90;99.90;;;;;;4993302;28;19914;-72
2022/03/17 13:43:44;;;;;;;;;;;10.90;99.90;;;;;;5010232;28;19910;-73
2022/03/17 13:46:16;;;;;;;;;;;10.90;99.90;;;;;;4992765;28;19997;-70
2022/03/17 13:48:42;;;;;;;;;;;10.70;99.90;;;;;;4974385;28;19920;-71
2022/03/17 13:51:07;;;;;;;;;;;10.80;99.90;;;;;;5008857;28;19956;-70
2022/03/17 13:53:39;;;;;;;;;;;10.70;99.90;;;;;;4993536;28;19924;-71
2022/03/17 13:56:05;;;;;;;;;;;10.70;99.90;;;;;;4992981;28;20178;-70
2022/03/17 13:58:34;;;;;;;;;;;10.80;99.90;;;;;;4981241;28;19918;-70
2022/03/17 14:01:06;;;;;;;;;;;10.80;99.90;;;;;;4973622;28;19976;-69
2022/03/17 14:03:32;;;;;;;;;;;10.70;99.90;;;;;;5003918;28;19919;-70
2022/03/17 14:05:58;;;;;;;;;;;10.90;99.90;;;;;;5010187;28;20322;-70
2022/03/17 14:08:24;;;;;;;;;;;10.80;99.90;;;;;;5011138;28;19909;-69
2022/03/17 14:10:50;;;;;;;;;;;10.80;99.90;;;;;;4980801;28;19917;-70
2022/03/17 14:13:16;;;;;;;;;;;10.90;99.90;;;;;;4973977;28;19914;-68
2022/03/17 14:15:42;;;;;;;;;;;10.80;99.90;;;;;;4992539;28;20071;-71
2022/03/17 14:18:07;;;;;;;;;;;10.80;99.90;;;;;;5010811;28;19940;-69
2022/03/17 14:20:33;;;;;;;;;;;10.80;99.90;;;;;;4992680;28;19913;-68
2022/03/17 14:25:42;;;;;;;;;;;10.90;99.90;;;;;;5011172;28;20018;-67
2022/03/17 14:28:08;;;;;;;;;;;10.90;99.90;;;;;;4992798;28;19909;-67
2022/03/17 14:30:33;;;;;;;;;;;10.80;99.90;;;;;;5010856;28;19910;-67
2022/03/17 14:32:59;;;;;;;;;;;10.80;99.90;;;;;;5010230;28;19917;-67
2022/03/17 14:35:25;;;;;;;;;;;10.80;99.90;;;;;;4993496;28;19956;-67
2022/03/17 14:37:50;;;;;;;;;;;10.90;99.90;;;;;;4992758;28;19917;-68